Time;durP1;ratioP1;P1;durP2;ratioP2;P2;SDS_P1;SDS_P2;PMS_P1;PMS_P2;Temp;Humidity;BMP_temperature;BMP_pressure;BME280_temperature;BME280_humidity;BME280_pressure;Samples;Min_cycle;Max_cycle;Signal;HPM_P1;HPM_P2
2022/06/22 00:00:57;;;;;;;8.35;4.15;;;;;;;10.31;100.00;99405.09;5101422;28;20139;-59
2022/06/22 00:03:48;;;;;;;7.68;3.47;;;;;;;10.40;100.00;99399.53;5101908;28;20467;-54
2022/06/22 00:06:44;;;;;;;5.55;3.35;;;;;;;10.27;100.00;99393.84;5102779;28;20478;-55
2022/06/22 00:09:33;;;;;;;8.95;3.33;;;;;;;10.26;100.00;99386.88;5112952;28;20054;-59
2022/06/22 00:12:24;;;;;;;7.80;3.25;;;;;;;10.23;100.00;99395.66;5100021;28;20937;-57
2022/06/22 00:15:34;;;;;;;6.07;3.25;;;;;;;10.15;100.00;99396.81;5103392;28;20062;-56
2022/06/22 00:18:45;;;;;;;6.10;2.42;;;;;;;10.14;100.00;99400.31;5104594;28;20040;-54
2022/06/22 00:21:37;;;;;;;9.27;3.00;;;;;;;10.22;100.00;99398.31;5082204;28;20075;-55
2022/06/22 00:24:21;;;;;;;5.38;3.15;;;;;;;10.10;100.00;99399.53;5105526;28;20044;-59
2022/06/22 00:27:15;;;;;;;5.28;2.42;;;;;;;10.00;100.00;99392.88;5101474;28;20051;-56
2022/06/22 00:30:09;;;;;;;4.63;2.13;;;;;;;10.04;100.00;99390.13;5103577;28;20043;-59
2022/06/22 00:33:20;;;;;;;4.30;2.00;;;;;;;9.90;100.00;99402.75;5106328;28;20035;-54
2022/06/22 00:36:17;;;;;;;3.80;1.58;;;;;;;9.93;100.00;99401.81;5104226;28;20043;-54
2022/06/22 00:39:22;;;;;;;3.47;1.67;;;;;;;9.82;100.00;99408.19;5105079;28;20043;-60
2022/06/22 00:42:15;;;;;;;3.08;1.75;;;;;;;9.88;100.00;99419.38;5104072;28;20051;-59
2022/06/22 00:45:19;;;;;;;3.53;1.75;;;;;;;9.86;100.00;99421.19;5101599;28;20062;-61
2022/06/22 00:48:12;;;;;;;3.42;1.50;;;;;;;9.76;100.00;99421.44;5100091;28;20044;-59
2022/06/22 00:51:02;;;;;;;2.90;1.50;;;;;;;9.63;100.00;99427.06;5101954;28;20101;-61
2022/06/22 00:53:55;;;;;;;1.98;1.08;;;;;;;9.76;100.00;99431.06;5100655;28;20148;-60
2022/06/22 00:56:57;;;;;;;3.85;1.33;;;;;;;9.76;100.00;99429.28;5107924;27;20104;-55
2022/06/22 01:00:08;;;;;;;2.08;1.10;;;;;;;9.76;100.00;99426.69;5106953;27;20043;-56
2022/06/22 01:02:58;;;;;;;3.75;1.15;;;;;;;9.72;100.00;99432.06;5102426;27;20474;-60
2022/06/22 01:05:53;;;;;;;3.53;2.05;;;;;;;9.64;100.00;99434.84;5110946;27;20035;-58
2022/06/22 01:08:41;;;;;;;7.75;1.35;;;;;;;9.63;100.00;99438.38;5103995;27;20052;-60
2022/06/22 01:14:33;;;;;;;2.88;1.42;;;;;;;9.50;100.00;99439.59;5113985;27;20043;-55
2022/06/22 01:17:28;;;;;;;2.17;1.30;;;;;;;9.36;100.00;99438.22;5107540;27;20039;-58
2022/06/22 01:20:28;;;;;;;4.05;1.42;;;;;;;9.41;100.00;99438.09;5107827;27;20043;-54
2022/06/22 01:23:13;;;;;;;2.50;1.42;;;;;;;9.35;100.00;99433.00;5111374;27;20039;-53
2022/06/22 01:26:07;;;;;;;5.50;1.60;;;;;;;9.39;100.00;99424.19;5106268;27;20044;-57
2022/06/22 01:29:25;;;;;;;4.60;2.28;;;;;;;9.30;100.00;99420.06;5106442;27;20047;-59
2022/06/22 01:32:15;;;;;;;4.28;2.08;;;;;;;9.33;100.00;99422.59;5106743;27;20485;-56
2022/06/22 01:35:04;;;;;;;4.22;2.13;;;;;;;9.33;100.00;99417.38;5105635;27;20385;-60
2022/06/22 01:37:49;;;;;;;4.15;2.15;;;;;;;9.36;100.00;99414.69;5104665;27;20069;-60
2022/06/22 01:40:45;;;;;;;3.95;1.80;;;;;;;9.38;100.00;99414.63;5102835;27;20039;-57
2022/06/22 01:43:46;;;;;;;3.35;1.55;;;;;;;9.32;100.00;99407.81;5105078;27;20039;-59
2022/06/22 01:47:12;;;;;;;3.35;1.60;;;;;;;9.38;100.00;99413.78;5104716;27;20035;-56
2022/06/22 01:50:11;;;;;;;2.42;1.52;;;;;;;9.35;100.00;99402.50;5097576;27;20063;-58
2022/06/22 01:53:27;;;;;;;3.75;1.73;;;;;;;9.33;100.00;99419.16;5130070;27;20055;-57
2022/06/22 01:56:15;;;;;;;4.13;1.80;;;;;;;9.36;100.00;99417.31;5107166;27;20432;-60
2022/06/22 01:59:18;;;;;;;5.10;2.13;;;;;;;9.26;100.00;99415.84;5102414;27;20390;-57
2022/06/22 02:02:11;;;;;;;8.10;3.15;;;;;;;9.21;100.00;99430.75;5104302;27;20050;-57
2022/06/22 02:05:12;;;;;;;9.63;2.75;;;;;;;9.10;100.00;99424.97;5104485;27;20047;-55
2022/06/22 02:08:09;;;;;;;6.45;2.70;;;;;;;9.07;100.00;99432.88;5109407;27;20052;-56
2022/06/22 02:11:12;;;;;;;8.43;3.08;;;;;;;9.01;100.00;99428.66;5105202;27;20108;-59
2022/06/22 02:14:03;;;;;;;6.22;2.80;;;;;;;8.85;100.00;99422.09;5101662;28;20062;-56
2022/06/22 02:16:58;;;;;;;6.50;2.65;;;;;;;8.89;100.00;99429.78;5104726;27;20130;-59
2022/06/22 02:19:42;;;;;;;6.72;2.67;;;;;;;9.00;100.00;99437.38;5104491;27;20051;-55
2022/06/22 02:22:26;;;;;;;3.92;2.45;;;;;;;9.03;100.00;99433.81;5104820;27;20044;-59
2022/06/22 02:25:14;;;;;;;4.55;2.00;;;;;;;8.85;100.00;99437.75;5107516;27;20043;-60
2022/06/22 02:27:59;;;;;;;5.95;2.05;;;;;;;9.03;100.00;99441.66;5103115;27;20044;-56
2022/06/22 02:30:43;;;;;;;4.30;1.75;;;;;;;8.79;100.00;99420.47;5105950;27;20055;-56
2022/06/22 02:33:31;;;;;;;3.63;1.63;;;;;;;8.80;100.00;99426.53;5103426;27;20043;-57
2022/06/22 02:36:17;;;;;;;5.43;1.75;;;;;;;8.94;100.00;99418.38;5104893;27;20046;-59
2022/06/22 02:39:04;;;;;;;2.42;1.50;;;;;;;8.91;100.00;99428.91;5101429;27;20420;-57
2022/06/22 02:44:55;;;;;;;4.13;2.30;;;;;;;8.71;100.00;99424.16;5103361;27;20044;-55
2022/06/22 02:47:57;;;;;;;3.53;1.40;;;;;;;8.78;100.00;99420.53;5102719;27;20402;-58
2022/06/22 02:50:51;;;;;;;6.03;2.00;;;;;;;8.85;100.00;99422.94;5101804;28;20130;-57
2022/06/22 02:53:38;;;;;;;3.92;1.70;;;;;;;8.80;100.00;99416.09;5106170;27;20648;-59
2022/06/22 02:56:34;;;;;;;2.78;1.42;;;;;;;8.75;100.00;99439.72;5108668;27;20051;-57
2022/06/22 02:59:19;;;;;;;3.33;1.38;;;;;;;8.64;100.00;99453.03;5111310;27;20047;-59
2022/06/22 03:02:05;;;;;;;2.67;1.42;;;;;;;8.70;100.00;99441.56;5103926;27;20149;-58
2022/06/22 03:04:52;;;;;;;3.45;1.60;;;;;;;8.78;100.00;99439.66;5102322;27;20047;-54
2022/06/22 03:07:39;;;;;;;2.03;1.25;;;;;;;8.91;100.00;99434.16;5103852;27;20123;-59
2022/06/22 03:10:27;;;;;;;5.03;1.33;;;;;;;8.88;100.00;99427.22;5102523;28;20044;-59
2022/06/22 03:13:26;;;;;;;3.28;1.35;;;;;;;8.97;100.00;99421.78;5103560;27;20585;-58
2022/06/22 03:16:26;;;;;;;4.05;1.83;;;;;;;9.02;100.00;99417.28;5101071;27;20520;-60
2022/06/22 03:19:23;;;;;;;3.88;1.77;;;;;;;9.10;100.00;99420.59;5096221;28;20035;-59
2022/06/22 03:22:37;;;;;;;3.67;1.98;;;;;;;9.16;100.00;99418.69;5097712;28;20044;-60
2022/06/22 03:25:27;;;;;;;4.05;1.70;;;;;;;9.15;100.00;99420.47;5099764;27;20154;-59
2022/06/22 03:28:27;;;;;;;3.53;1.25;;;;;;;9.21;100.00;99407.25;5099089;27;20109;-55
2022/06/22 03:31:21;;;;;;;3.58;1.58;;;;;;;9.40;100.00;99420.69;5099053;27;20044;-56
2022/06/22 03:34:15;;;;;;;2.75;1.63;;;;;;;9.26;100.00;99428.00;5101052;28;20044;-55
2022/06/22 03:37:08;;;;;;;3.25;1.70;;;;;;;9.50;100.00;99439.59;5098445;27;20047;-58
2022/06/22 03:40:09;;;;;;;2.50;1.75;;;;;;;9.41;100.00;99434.63;5099990;27;20043;-59
2022/06/22 03:42:59;;;;;;;2.13;1.35;;;;;;;9.66;100.00;99434.81;5098676;27;20051;-59
2022/06/22 03:45:48;;;;;;;2.63;1.65;;;;;;;9.70;100.00;99432.06;5100398;28;20052;-56
2022/06/22 03:48:42;;;;;;;3.28;1.58;;;;;;;9.86;100.00;99431.66;5101505;28;20161;-55
2022/06/22 03:51:26;;;;;;;3.55;1.15;;;;;;;9.98;100.00;99426.94;5100409;28;20100;-58
2022/06/22 03:54:31;;;;;;;3.42;1.45;;;;;;;9.99;100.00;99426.03;5099592;27;20054;-57
2022/06/22 03:57:19;;;;;;;2.20;1.38;;;;;;;10.18;100.00;99428.13;5103597;27;20047;-61
2022/06/22 04:00:06;;;;;;;4.68;1.70;;;;;;;10.26;100.00;99424.38;5103461;28;20040;-59
2022/06/22 04:02:52;;;;;;;2.92;1.75;;;;;;;10.44;100.00;99423.00;5100312;28;20052;-57
2022/06/22 04:05:42;;;;;;;4.47;2.10;;;;;;;10.61;100.00;99417.22;5100480;28;20047;-56
2022/06/22 04:08:32;;;;;;;8.07;2.13;;;;;;;10.89;100.00;99411.97;5099079;28;20044;-58
2022/06/22 04:11:34;;;;;;;6.10;2.35;;;;;;;11.34;100.00;99427.06;5105680;28;20048;-55
2022/06/22 04:14:25;;;;;;;6.13;2.15;;;;;;;11.95;100.00;99431.94;5101481;28;20047;-62
2022/06/22 04:17:34;;;;;;;4.47;1.50;;;;;;;12.48;100.00;99423.81;5100727;28;20402;-59
2022/06/22 04:20:24;;;;;;;3.40;1.80;;;;;;;12.89;100.00;99425.72;5102299;28;20059;-57
2022/06/22 04:23:09;;;;;;;3.70;2.00;;;;;;;12.23;100.00;99429.16;5104624;28;20047;-59
2022/06/22 04:25:58;;;;;;;2.22;1.70;;;;;;;12.21;100.00;99427.50;5104973;28;20444;-60
2022/06/22 04:28:46;;;;;;;5.78;1.60;;;;;;;12.05;100.00;99450.81;5102180;28;20047;-61
2022/06/22 04:31:34;;;;;;;5.80;1.83;;;;;;;12.11;100.00;99456.72;5100362;28;20051;-59
2022/06/22 04:34:58;;;;;;;1.77;1.38;;;;;;;12.57;100.00;99454.09;5108802;27;20613;-58
2022/06/22 04:37:57;;;;;;;3.72;1.48;;;;;;;13.46;100.00;99448.78;5104661;28;20438;-62
2022/06/22 04:41:10;;;;;;;2.20;1.52;;;;;;;13.65;100.00;99461.13;5106510;27;20148;-57
2022/06/22 04:44:13;;;;;;;;;;;;;;;13.98;100.00;99459.66;5087957;28;20052;-60
2022/06/22 04:47:20;;;;;;;6.72;1.40;;;;;;;14.76;100.00;99472.84;5104284;27;19939;-61
2022/06/22 04:50:13;;;;;;;6.25;1.65;;;;;;;15.01;100.00;99472.50;5106662;27;20059;-56
2022/06/22 04:52:59;;;;;;;2.77;1.30;;;;;;;15.20;100.00;99471.53;5104467;27;20047;-55
2022/06/22 04:55:44;;;;;;;8.50;1.50;;;;;;;15.34;100.00;99467.34;5105159;27;20298;-58
2022/06/22 04:58:46;;;;;;;4.90;1.60;;;;;;;15.98;100.00;99473.81;5108895;27;20044;-63
2022/06/22 05:01:55;;;;;;;5.35;1.20;;;;;;;16.33;100.00;99475.41;5109505;27;20048;-61
2022/06/22 05:04:43;;;;;;;3.15;1.52;;;;;;;15.29;100.00;99491.34;5109735;27;20040;-59
2022/06/22 05:07:42;;;;;;;5.30;1.67;;;;;;;15.02;100.00;99482.16;5109633;27;20052;-63
2022/06/22 05:10:39;;;;;;;2.58;1.42;;;;;;;15.61;100.00;99484.44;5107409;27;20031;-58
2022/06/22 05:13:27;;;;;;;2.03;1.30;;;;;;;15.35;100.00;99480.47;5103677;27;20039;-57
2022/06/22 05:16:20;;;;;;;3.97;1.45;;;;;;;16.02;100.00;99477.97;5105801;27;20474;-57
2022/06/22 05:19:08;;;;;;;2.30;1.02;;;;;;;16.44;100.00;99476.63;5101093;27;20040;-61
2022/06/22 05:21:58;;;;;;;5.18;1.52;;;;;;;16.45;100.00;99481.00;5103744;27;20063;-63
2022/06/22 05:24:47;;;;;;;4.60;1.73;;;;;;;15.99;100.00;99473.72;5115253;27;20035;-61
2022/06/22 05:27:59;;;;;;;2.72;1.13;;;;;;;16.20;100.00;99468.25;5109045;28;20893;-61
2022/06/22 05:30:54;;;;;;;2.53;1.20;;;;;;;16.55;100.00;99456.59;5106877;28;20055;-58
2022/06/22 05:33:46;;;;;;;4.50;1.50;;;;;;;16.53;100.00;99466.41;5107461;27;20067;-61
2022/06/22 05:36:37;;;;;;;4.75;1.67;;;;;;;16.72;100.00;99458.31;5102787;28;20039;-60
2022/06/22 05:39:22;;;;;;;4.47;1.45;;;;;;;16.82;100.00;99462.16;5102966;27;20121;-61
2022/06/22 05:42:08;;;;;;;4.88;1.23;;;;;;;16.76;100.00;99459.03;5102630;28;20047;-62
2022/06/22 05:44:53;;;;;;;3.33;1.20;;;;;;;17.35;100.00;99469.78;5100691;27;20467;-58
2022/06/22 05:47:38;;;;;;;3.28;1.23;;;;;;;17.58;100.00;99463.13;5100358;28;20790;-59
2022/06/22 05:50:30;;;;;;;3.50;1.50;;;;;;;18.25;100.00;99472.31;5102781;28;20035;-60
2022/06/22 05:53:22;;;;;;;3.53;1.00;;;;;;;18.59;100.00;99465.78;5101077;27;20039;-61
2022/06/22 05:56:19;;;;;;;3.50;1.30;;;;;;;18.82;100.00;99469.63;5103855;27;20040;-62
2022/06/22 05:59:35;;;;;;;2.72;1.20;;;;;;;19.14;100.00;99471.97;5100115;27;20044;-65
2022/06/22 06:02:33;;;;;;;2.00;1.08;;;;;;;19.02;100.00;99472.81;5100202;28;20044;-61
2022/06/22 06:05:25;;;;;;;2.65;1.20;;;;;;;19.34;100.00;99468.03;5100864;27;20043;-60
2022/06/22 06:08:35;;;;;;;1.55;1.08;;;;;;;20.02;100.00;99475.81;5098528;27;20048;-64
2022/06/22 06:11:28;;;;;;;2.45;1.10;;;;;;;20.13;100.00;99477.72;5097750;27;20039;-63
2022/06/22 06:14:31;;;;;;;2.92;1.50;;;;;;;20.20;100.00;99475.47;5103039;27;20047;-62
2022/06/22 06:17:22;;;;;;;6.43;1.50;;;;;;;20.37;100.00;99467.16;5098924;28;20043;-62
2022/06/22 06:20:17;;;;;;;2.30;1.30;;;;;;;20.14;100.00;99486.53;5102829;27;20080;-60
2022/06/22 06:23:21;;;;;;;4.20;1.35;;;;;;;19.55;100.00;99490.47;5102469;27;20112;-61
2022/06/22 06:29:21;;;;;;;3.35;1.17;;;;;;;20.61;100.00;99493.84;5103870;27;20540;-58
2022/06/22 06:32:25;;;;;;;3.08;0.90;;;;;;;20.53;100.00;99493.53;5105157;28;20051;-60
2022/06/22 06:35:25;;;;;;;2.70;1.10;;;;;;;21.43;100.00;99481.63;5102211;28;20443;-59
2022/06/22 06:38:34;;;;;;;3.40;0.50;;;;;;;21.12;100.00;99485.69;5109886;27;20477;-61
2022/06/22 06:41:44;;;;;;;1.45;0.60;;;;;;;21.75;100.00;99486.34;5113364;27;20051;-61
2022/06/22 06:44:35;;;;;;;3.80;0.73;;;;;;;22.04;100.00;99475.28;5111116;28;20049;-62
2022/06/22 06:47:27;;;;;;;2.53;0.57;;;;;;;21.72;100.00;99472.41;5112101;27;20035;-58
2022/06/22 06:50:19;;;;;;;1.60;0.55;;;;;;;22.39;95.29;99480.50;5106105;28;20040;-62
2022/06/22 06:53:41;;;;;;;3.08;1.10;;;;;;;21.96;93.40;99488.31;5101255;27;20466;-61
2022/06/22 06:56:38;;;;;;;2.47;0.70;;;;;;;22.30;93.53;99478.59;5080528;28;20055;-61
2022/06/22 06:59:29;;;;;;;1.42;0.50;;;;;;;22.95;89.30;99469.81;5109679;27;20043;-61
2022/06/22 07:02:27;;;;;;;3.45;1.13;;;;;;;22.16;90.85;99466.31;5109885;27;20127;-64
2022/06/22 07:05:15;;;;;;;1.95;0.55;;;;;;;23.66;87.25;99461.25;5108485;27;20036;-60
2022/06/22 07:08:09;;;;;;;1.42;0.40;;;;;;;23.01;82.17;99465.78;5101976;28;20040;-61
2022/06/22 07:11:31;;;;;;;1.88;0.50;;;;;;;23.14;82.96;99468.28;5101139;28;20051;-63
2022/06/22 07:14:24;;;;;;;1.67;0.57;;;;;;;23.44;75.65;99468.41;5098019;27;20059;-61
2022/06/22 07:17:16;;;;;;;;;;;;;;;23.81;72.45;99473.34;5106201;27;20347;-60
2022/06/22 07:20:28;;;;;;;0.95;0.30;;;;;;;24.10;68.51;99480.69;5106259;27;20666;-60
2022/06/22 07:23:28;;;;;;;1.60;0.77;;;;;;;24.74;71.01;99466.22;5098302;28;20097;-61
2022/06/22 07:26:39;;;;;;;1.52;0.30;;;;;;;23.87;65.11;99471.97;5098264;28;20044;-63
2022/06/22 07:29:30;;;;;;;0.50;0.30;;;;;;;24.20;65.32;99469.06;5102477;28;20111;-58
2022/06/22 07:32:39;;;;;;;1.08;0.30;;;;;;;25.24;56.80;99458.13;5099025;28;20479;-61
2022/06/22 07:35:35;;;;;;;1.13;0.17;;;;;;;25.33;59.07;99470.69;5101908;27;20047;-63
2022/06/22 07:38:39;;;;;;;0.82;0.10;;;;;;;25.68;61.09;99466.59;5102302;27;20036;-62
2022/06/22 07:41:26;;;;;;;0.90;0.20;;;;;;;25.15;60.63;99476.75;5103728;28;20048;-61
2022/06/22 07:44:19;;;;;;;3.80;0.28;;;;;;;25.81;60.01;99476.06;5102132;28;20052;-61
2022/06/22 07:47:37;;;;;;;2.05;0.20;;;;;;;25.68;55.83;99474.63;5103261;27;20055;-62
2022/06/22 07:50:27;;;;;;;0.50;0.10;;;;;;;26.31;56.90;99466.88;5103552;28;20139;-60
2022/06/22 07:53:33;;;;;;;0.85;0.17;;;;;;;24.78;56.07;99479.19;5101555;28;20044;-63
2022/06/22 07:56:18;;;;;;;2.38;0.20;;;;;;;25.65;58.25;99475.75;5102338;28;20526;-61
2022/06/22 07:59:11;;;;;;;0.80;0.13;;;;;;;26.36;54.94;99480.69;5108248;27;20364;-60
2022/06/22 08:02:01;;;;;;;1.30;0.43;;;;;;;25.82;56.83;99474.22;5110502;27;20039;-60
2022/06/22 08:05:11;;;;;;;1.50;0.10;;;;;;;26.23;53.36;99481.03;5106387;28;20036;-61
2022/06/22 08:08:02;;;;;;;0.73;0.10;;;;;;;27.01;52.80;99468.09;5106461;28;20039;-60
2022/06/22 08:10:59;;;;;;;1.50;0.30;;;;;;;26.17;52.83;99473.56;5110112;28;20466;-61
2022/06/22 08:14:04;;;;;;;1.20;0.25;;;;;;;26.10;54.97;99472.47;5105049;28;20039;-62
2022/06/22 08:16:54;;;;;;;0.45;0.10;;;;;;;26.59;51.20;99473.16;5105478;28;20043;-62
2022/06/22 08:19:39;;;;;;;1.30;0.17;;;;;;;27.06;50.87;99467.63;5107219;28;20119;-59
2022/06/22 08:22:25;;;;;;;1.05;0.20;;;;;;;27.37;52.06;99464.59;5109058;28;20051;-63
2022/06/22 08:25:12;;;;;;;0.63;0.20;;;;;;;26.87;47.60;99467.75;5108861;28;20052;-65
2022/06/22 08:27:57;;;;;;;1.40;0.45;;;;;;;25.48;54.28;99463.94;5108009;28;20073;-63
2022/06/22 08:30:41;;;;;;;2.40;0.10;;;;;;;26.16;56.04;99463.81;5098783;28;20039;-64
2022/06/22 08:33:36;;;;;;;0.73;0.15;;;;;;;26.73;51.37;99466.41;5101246;28;20048;-62
2022/06/22 08:36:29;;;;;;;0.90;0.20;;;;;;;27.42;52.53;99457.75;5100426;28;20055;-61
2022/06/22 08:39:20;;;;;;;1.13;0.20;;;;;;;26.96;51.04;99456.09;5098764;28;20058;-62
2022/06/22 08:42:18;;;;;;;0.80;0.20;;;;;;;26.98;52.72;99462.16;5102725;28;20052;-63
2022/06/22 08:45:34;;;;;;;2.38;0.20;;;;;;;27.58;49.28;99450.81;5099344;28;20051;-60
2022/06/22 08:48:52;;;;;;;0.90;0.20;;;;;;;26.74;50.51;99444.75;5103616;28;20048;-61
2022/06/22 08:51:55;;;;;;;0.43;0.20;;;;;;;27.65;51.37;99458.09;5099148;28;20424;-64
2022/06/22 08:54:46;;;;;;;2.90;0.30;;;;;;;26.80;47.99;99451.38;5100059;28;20044;-63
2022/06/22 08:57:55;;;;;;;1.67;0.10;;;;;;;27.63;47.16;99452.03;5102706;28;20036;-65
2022/06/22 09:00:48;;;;;;;1.63;0.25;;;;;;;26.19;47.23;99451.94;5096594;28;20056;-62
2022/06/22 09:03:36;;;;;;;0.90;0.10;;;;;;;27.87;49.02;99454.09;5098052;28;20044;-62
2022/06/22 09:06:53;;;;;;;1.27;0.10;;;;;;;27.37;49.71;99460.06;5103362;28;20048;-63
2022/06/22 09:10:04;;;;;;;0.82;0.13;;;;;;;27.15;44.96;99460.53;5101043;28;20040;-64
2022/06/22 09:13:25;;;;;;;1.73;0.10;;;;;;;26.72;46.44;99459.38;5103564;28;20051;-63
2022/06/22 09:16:10;;;;;;;1.23;0.20;;;;;;;27.79;45.00;99459.44;5101335;28;20052;-64
2022/06/22 09:19:20;;;;;;;2.03;0.30;;;;;;;27.91;45.95;99457.31;5105711;27;20044;-61
2022/06/22 09:22:43;;;;;;;0.57;0.20;;;;;;;28.18;43.96;99450.94;5103561;27;20048;-62
2022/06/22 09:25:37;;;;;;;0.93;0.17;;;;;;;27.86;42.77;99454.25;5078851;28;20048;-64
2022/06/22 09:28:35;;;;;;;1.40;0.30;;;;;;;28.39;47.82;99443.31;5100668;27;20100;-63
2022/06/22 09:31:44;;;;;;;0.93;0.00;;;;;;;27.56;42.90;99445.59;5102285;27;20111;-63
2022/06/22 09:34:47;;;;;;;1.17;0.20;;;;;;;28.59;42.96;99443.88;5102949;27;20044;-62
2022/06/22 09:37:40;;;;;;;1.02;0.20;;;;;;;28.62;44.86;99446.25;5103114;27;20513;-62
2022/06/22 09:40:30;;;;;;;1.02;0.10;;;;;;;28.15;48.33;99443.16;5103004;27;20039;-62
2022/06/22 09:43:54;;;;;;;1.25;0.25;;;;;;;26.54;44.06;99444.03;5103425;28;20043;-62
2022/06/22 09:47:09;;;;;;;1.10;0.30;;;;;;;26.10;47.12;99442.94;5105095;27;20048;-61
2022/06/22 09:50:26;;;;;;;0.52;0.10;;;;;;;26.94;48.23;99440.13;5103748;27;20158;-61
2022/06/22 09:53:33;;;;;;;2.13;0.38;;;;;;;27.42;42.62;99430.00;5111714;27;20076;-60
2022/06/22 09:56:52;;;;;;;0.47;0.13;;;;;;;28.34;46.30;99440.25;5113258;27;20035;-61
2022/06/22 09:59:55;;;;;;;1.13;0.15;;;;;;;28.09;44.30;99443.81;5081110;27;20059;-63
2022/06/22 10:03:14;;;;;;;1.90;0.30;;;;;;;28.12;43.72;99447.03;5106092;27;20468;-62
2022/06/22 10:06:19;;;;;;;0.93;0.10;;;;;;;28.22;44.85;99438.81;5099380;27;20043;-61
2022/06/22 10:09:18;;;;;;;1.73;0.20;;;;;;;28.25;46.35;99443.88;5107935;27;20062;-60
2022/06/22 10:12:19;;;;;;;0.52;0.10;;;;;;;29.11;45.01;99437.47;5104025;27;20052;-60
2022/06/22 10:15:31;;;;;;;1.23;0.40;;;;;;;29.45;40.06;99444.59;5103408;28;20070;-61
2022/06/22 10:18:16;;;;;;;1.42;0.30;;;;;;;28.50;44.97;99444.88;5105155;27;20047;-62
2022/06/22 10:21:38;;;;;;;1.27;0.20;;;;;;;29.01;39.72;99444.88;5102560;28;20044;-63
2022/06/22 10:24:41;;;;;;;2.10;0.57;;;;;;;28.79;42.19;99440.91;5103192;27;20042;-63
2022/06/22 10:27:44;;;;;;;1.65;0.10;;;;;;;27.87;45.17;99437.09;5101504;27;20040;-61
2022/06/22 10:30:42;;;;;;;0.60;0.10;;;;;;;28.31;45.47;99429.78;5104123;27;20055;-60
2022/06/22 10:33:53;;;;;;;2.20;0.10;;;;;;;28.77;45.40;99429.47;5103856;27;20051;-62
2022/06/22 10:36:56;;;;;;;0.75;0.20;;;;;;;28.99;43.14;99423.47;5098792;27;20498;-64
2022/06/22 10:45:08;;;;;;;0.95;0.10;;;;;;;29.47;41.59;99426.38;5102405;28;20390;-61
2022/06/22 10:46:57;;;;;;;1.35;0.10;;;;;;;27.34;43.94;99421.91;5100425;27;20039;-62
2022/06/22 10:50:15;;;;;;;1.75;0.45;;;;;;;26.01;48.46;99415.16;5083864;28;20105;-63
2022/06/22 10:53:31;;;;;;;1.40;0.10;;;;;;;27.44;41.54;99419.97;5101877;27;20174;-64
2022/06/22 10:56:40;;;;;;;0.77;0.10;;;;;;;27.07;45.83;99417.41;5101710;27;20040;-62
2022/06/22 11:00:00;;;;;;;1.95;0.20;;;;;;;28.24;43.93;99422.50;5099956;27;20062;-60
2022/06/22 11:03:16;;;;;;;1.67;0.20;;;;;;;27.87;41.69;99432.56;5100725;27;20043;-59
2022/06/22 11:06:28;;;;;;;0.50;0.10;;;;;;;28.88;45.31;99413.81;5103176;28;20078;-63
2022/06/22 11:09:12;;;;;;;;;;;;;;;29.44;43.05;99419.47;5100735;28;20044;-62
2022/06/22 11:12:19;;;;;;;1.33;0.30;;;;;;;28.85;42.23;99414.16;5100639;28;19924;-63
2022/06/22 11:15:37;;;;;;;1.98;0.28;;;;;;;29.51;42.75;99403.44;5107991;27;20062;-61
2022/06/22 11:18:42;;;;;;;1.95;0.17;;;;;;;29.20;40.85;99396.03;5104851;27;20052;-63
2022/06/22 11:21:40;;;;;;;1.17;0.20;;;;;;;28.96;40.93;99406.78;5101791;27;20052;-63
2022/06/22 11:24:43;;;;;;;1.13;0.00;;;;;;;28.45;42.78;99417.59;5102208;28;20047;-62
2022/06/22 11:31:11;;;;;;;;;;;;;;;27.82;42.37;99415.19;5101894;28;20051;-63
2022/06/22 11:34:23;;;;;;;1.77;0.50;;;;;;;27.65;42.18;99422.28;5102346;27;19926;-64
2022/06/22 11:37:11;;;;;;;;;;;;;;;27.29;42.61;99416.97;5102444;28;20123;-64
2022/06/22 11:40:14;;;;;;;1.27;0.30;;;;;;;27.68;41.74;99413.91;5099307;27;19923;-64
2022/06/22 11:43:23;;;;;;;1.00;0.30;;;;;;;26.16;44.48;99420.91;5105844;28;20092;-61
2022/06/22 11:46:13;;;;;;;1.13;0.15;;;;;;;26.32;42.72;99409.50;5105708;27;20036;-61
2022/06/22 11:49:37;;;;;;;1.58;0.20;;;;;;;27.19;44.14;99403.59;5129155;27;20514;-60
2022/06/22 11:52:30;;;;;;;1.52;0.10;;;;;;;28.43;39.97;99395.34;5105683;28;20051;-59
2022/06/22 11:55:25;;;;;;;0.88;0.15;;;;;;;27.77;42.53;99407.63;5110667;27;20057;-61
2022/06/22 11:58:17;;;;;;;1.02;0.10;;;;;;;26.82;44.99;99410.97;5103287;27;20051;-62
2022/06/22 12:01:36;;;;;;;3.00;0.28;;;;;;;27.87;41.42;99394.06;5100103;28;20052;-62
2022/06/22 12:04:44;;;;;;;1.83;0.32;;;;;;;27.99;44.33;99394.63;5105260;28;20043;-60
2022/06/22 12:07:34;;;;;;;0.98;0.30;;;;;;;27.90;43.26;99385.66;5104265;28;20050;-65
2022/06/22 12:10:25;;;;;;;1.70;0.30;;;;;;;27.37;42.49;99382.09;5105444;28;20051;-62
2022/06/22 12:13:27;;;;;;;1.25;0.15;;;;;;;26.75;43.44;99381.19;5100740;28;20050;-61
2022/06/22 12:16:40;;;;;;;1.33;0.20;;;;;;;28.04;39.39;99376.16;5104127;28;20040;-60
2022/06/22 12:19:53;;;;;;;0.70;0.22;;;;;;;28.51;40.25;99373.00;5071611;28;20482;-61
2022/06/22 12:22:59;;;;;;;1.48;0.20;;;;;;;27.50;42.40;99376.31;5108143;28;20052;-63
2022/06/22 12:25:43;;;;;;;1.17;0.10;;;;;;;27.07;43.49;99385.16;5106817;28;20043;-63
2022/06/22 12:28:50;;;;;;;0.38;0.00;;;;;;;26.80;42.87;99394.97;5103398;28;20040;-61
2022/06/22 12:31:40;;;;;;;0.82;0.10;;;;;;;27.21;45.42;99392.72;5103832;28;20048;-59
2022/06/22 12:34:44;;;;;;;0.77;0.30;;;;;;;26.96;43.52;99399.66;5101907;28;20048;-60
2022/06/22 12:37:35;;;;;;;0.82;0.10;;;;;;;25.51;47.41;99407.34;5105362;28;20467;-60
2022/06/22 12:40:23;;;;;;;0.30;0.10;;;;;;;26.93;42.83;99387.38;5105119;28;20383;-60
2022/06/22 12:43:34;;;;;;;2.00;0.43;;;;;;;27.50;44.80;99385.22;5105661;28;22006;-61
2022/06/22 12:46:48;;;;;;;1.55;0.20;;;;;;;27.35;43.76;99394.00;5110453;28;20047;-61
2022/06/22 12:49:45;;;;;;;1.25;0.20;;;;;;;27.79;43.07;99381.41;5088633;28;20848;-59
2022/06/22 12:52:45;;;;;;;1.13;0.10;;;;;;;28.17;42.75;99369.31;5106085;27;20446;-61
2022/06/22 12:55:39;;;;;;;1.67;0.10;;;;;;;26.81;42.64;99375.16;5114464;27;20473;-63
2022/06/22 12:58:39;;;;;;;1.10;0.20;;;;;;;28.16;42.33;99361.41;5106633;27;20040;-60
2022/06/22 13:01:24;;;;;;;0.98;0.10;;;;;;;28.10;43.90;99364.75;5103601;27;20440;-62
2022/06/22 13:04:33;;;;;;;1.23;0.20;;;;;;;27.61;41.45;99367.13;5105272;27;20043;-63
2022/06/22 13:07:19;;;;;;;1.95;0.10;;;;;;;27.20;41.60;99370.38;5106274;27;20900;-61
2022/06/22 13:10:04;;;;;;;1.27;0.30;;;;;;;27.51;40.83;99367.22;5107320;27;20036;-61
2022/06/22 13:12:57;;;;;;;0.68;0.20;;;;;;;28.02;40.66;99357.47;5102682;27;20109;-60
2022/06/22 13:15:59;;;;;;;0.65;0.10;;;;;;;27.56;41.08;99367.63;5105266;27;20050;-65
2022/06/22 13:18:55;;;;;;;0.90;0.30;;;;;;;27.42;41.65;99368.16;5107393;27;20043;-64
2022/06/22 13:21:54;;;;;;;1.27;0.20;;;;;;;28.24;42.96;99360.59;5104708;27;20052;-63
2022/06/22 13:24:49;;;;;;;6.13;4.20;;;;;;;27.10;44.49;99355.28;5110737;27;20702;-61
2022/06/22 13:27:47;;;;;;;4.10;1.50;;;;;;;27.44;44.78;99361.66;5111479;27;20489;-60
2022/06/22 13:31:08;;;;;;;0.77;0.47;;;;;;;27.46;47.83;99361.47;5107374;27;20132;-59
2022/06/22 13:33:57;;;;;;;1.73;0.23;;;;;;;27.20;42.23;99365.00;5111038;27;20051;-62
2022/06/22 13:36:56;;;;;;;1.75;0.10;;;;;;;26.88;41.77;99365.53;5104998;27;20118;-62
2022/06/22 13:40:03;;;;;;;1.50;0.20;;;;;;;25.69;42.34;99361.00;5105554;27;20052;-60
2022/06/22 13:43:05;;;;;;;0.47;0.10;;;;;;;26.13;42.02;99369.34;5107146;27;20407;-59
2022/06/22 13:46:08;;;;;;;0.88;0.22;;;;;;;25.79;47.50;99368.03;5108364;27;20044;-63
2022/06/22 13:49:04;;;;;;;0.85;0.30;;;;;;;25.77;46.29;99363.78;5106477;27;20040;-61
2022/06/22 13:52:19;;;;;;;1.10;0.15;;;;;;;25.55;47.10;99368.53;5104864;27;20081;-60
2022/06/22 13:55:25;;;;;;;0.85;0.70;;;;;;;24.94;46.00;99350.09;5106429;27;20047;-64
2022/06/22 13:58:29;;;;;;;1.23;0.30;;;;;;;25.23;46.29;99351.94;5103554;28;20054;-62
2022/06/22 14:01:23;;;;;;;1.17;0.30;;;;;;;25.60;47.10;99347.47;5107455;27;20047;-58
2022/06/22 14:04:15;;;;;;;0.60;0.25;;;;;;;26.03;45.37;99350.59;5105303;27;20059;-61
2022/06/22 14:07:10;;;;;;;1.50;0.30;;;;;;;26.10;45.25;99338.31;5104174;27;20046;-59
2022/06/22 14:10:09;;;;;;;1.65;0.22;;;;;;;25.27;47.37;99332.75;5101182;27;20040;-60
2022/06/22 14:13:20;;;;;;;1.50;0.20;;;;;;;24.88;49.94;99323.88;5106006;27;20106;-58